sensor_id;sensor_type;location;lat;lon;timestamp;P1;P2;P0
77411;PMS7003;66484;49.968;19.140;2023-05-10T00:00:44;17.00;15.75;9.00
77411;PMS7003;66484;49.968;19.140;2023-05-10T00:03:11;11.50;11.50;7.75
77411;PMS7003;66484;49.968;19.140;2023-05-10T00:05:39;15.75;15.00;11.75
77411;PMS7003;66484;49.968;19.140;2023-05-10T00:08:06;14.50;14.50;10.00
77411;PMS7003;66484;49.968;19.140;2023-05-10T00:10:34;13.75;12.75;10.50
77411;PMS7003;66484;49.968;19.140;2023-05-10T00:13:01;13.00;9.25;8.00
77411;PMS7003;66484;49.968;19.140;2023-05-10T00:15:29;13.50;13.50;9.75
77411;PMS7003;66484;49.968;19.140;2023-05-10T00:17:57;12.00;9.25;8.00
77411;PMS7003;66484;49.968;19.140;2023-05-10T00:20:24;14.00;13.75;9.50
77411;PMS7003;66484;49.968;19.140;2023-05-10T00:22:53;12.50;12.50;9.00
77411;PMS7003;66484;49.968;19.140;2023-05-10T00:25:20;18.25;14.25;11.50
77411;PMS7003;66484;49.968;19.140;2023-05-10T00:27:48;19.75;19.25;13.75
77411;PMS7003;66484;49.968;19.140;2023-05-10T00:30:16;20.50;18.50;13.25
77411;PMS7003;66484;49.968;19.140;2023-05-10T00:32:44;23.00;23.00;16.25
77411;PMS7003;66484;49.968;19.140;2023-05-10T00:35:11;22.25;19.50;14.00
77411;PMS7003;66484;49.968;19.140;2023-05-10T00:37:39;19.75;17.50;13.25
77411;PMS7003;66484;49.968;19.140;2023-05-10T00:40:06;19.25;19.25;14.25
77411;PMS7003;66484;49.968;19.140;2023-05-10T00:42:34;14.00;12.00;7.00
77411;PMS7003;66484;49.968;19.140;2023-05-10T00:45:01;24.50;20.00;13.00
77411;PMS7003;66484;49.968;19.140;2023-05-10T00:47:29;19.25;18.25;14.00
77411;PMS7003;66484;49.968;19.140;2023-05-10T00:49:56;24.75;21.25;14.50
77411;PMS7003;66484;49.968;19.140;2023-05-10T00:52:24;19.25;17.75;13.00
77411;PMS7003;66484;49.968;19.140;2023-05-10T00:54:53;22.00;18.50;12.75
77411;PMS7003;66484;49.968;19.140;2023-05-10T00:57:20;17.75;14.75;12.00
77411;PMS7003;66484;49.968;19.140;2023-05-10T00:59:48;15.25;14.25;12.00
77411;PMS7003;66484;49.968;19.140;2023-05-10T01:02:16;23.25;19.00;11.50
77411;PMS7003;66484;49.968;19.140;2023-05-10T01:04:44;29.25;22.75;13.50
77411;PMS7003;66484;49.968;19.140;2023-05-10T01:07:11;20.75;18.00;13.00
77411;PMS7003;66484;49.968;19.140;2023-05-10T01:09:38;17.50;17.25;12.25
77411;PMS7003;66484;49.968;19.140;2023-05-10T01:12:05;17.75;17.25;12.75
77411;PMS7003;66484;49.968;19.140;2023-05-10T01:14:34;19.25;18.25;13.00
77411;PMS7003;66484;49.968;19.140;2023-05-10T01:17:03;15.50;14.00;11.50
77411;PMS7003;66484;49.968;19.140;2023-05-10T01:19:31;17.25;15.50;12.50
77411;PMS7003;66484;49.968;19.140;2023-05-10T01:27:37;17.00;17.00;12.75
77411;PMS7003;66484;49.968;19.140;2023-05-10T01:33:30;23.00;18.25;13.00
77411;PMS7003;66484;49.968;19.140;2023-05-10T01:36:05;17.50;13.00;9.00
77411;PMS7003;66484;49.968;19.140;2023-05-10T01:38:47;20.00;14.50;9.75
77411;PMS7003;66484;49.968;19.140;2023-05-10T01:44:10;16.00;16.00;13.00
77411;PMS7003;66484;49.968;19.140;2023-05-10T01:46:59;20.75;18.00;13.50
77411;PMS7003;66484;49.968;19.140;2023-05-10T01:49:34;19.75;19.00;14.00
77411;PMS7003;66484;49.968;19.140;2023-05-10T01:52:08;15.50;8.75;7.25
77411;PMS7003;66484;49.968;19.140;2023-05-10T01:54:38;18.00;16.25;13.00
77411;PMS7003;66484;49.968;19.140;2023-05-10T01:57:09;18.25;16.00;12.00
77411;PMS7003;66484;49.968;19.140;2023-05-10T01:59:40;22.25;17.50;13.50
77411;PMS7003;66484;49.968;19.140;2023-05-10T02:05:12;17.75;17.75;13.00
77411;PMS7003;66484;49.968;19.140;2023-05-10T02:07:41;18.75;18.00;14.25
77411;PMS7003;66484;49.968;19.140;2023-05-10T02:10:09;19.25;17.50;13.50
77411;PMS7003;66484;49.968;19.140;2023-05-10T02:12:38;12.50;12.00;11.50
77411;PMS7003;66484;49.968;19.140;2023-05-10T02:15:08;19.50;19.00;11.00
77411;PMS7003;66484;49.968;19.140;2023-05-10T02:17:37;16.50;14.75;12.00
77411;PMS7003;66484;49.968;19.140;2023-05-10T02:20:06;20.75;16.00;12.75
77411;PMS7003;66484;49.968;19.140;2023-05-10T02:22:34;17.25;13.25;10.00
77411;PMS7003;66484;49.968;19.140;2023-05-10T02:25:03;13.25;12.25;9.50
77411;PMS7003;66484;49.968;19.140;2023-05-10T02:27:31;18.75;17.25;12.50
77411;PMS7003;66484;49.968;19.140;2023-05-10T02:29:58;19.50;17.75;13.00
77411;PMS7003;66484;49.968;19.140;2023-05-10T02:32:26;19.75;18.25;12.75
77411;PMS7003;66484;49.968;19.140;2023-05-10T02:34:54;18.50;16.50;11.25
77411;PMS7003;66484;49.968;19.140;2023-05-10T02:37:22;23.00;22.25;14.50
77411;PMS7003;66484;49.968;19.140;2023-05-10T02:39:49;16.75;16.00;11.00
77411;PMS7003;66484;49.968;19.140;2023-05-10T02:42:19;19.75;17.00;14.00
77411;PMS7003;66484;49.968;19.140;2023-05-10T02:44:51;15.25;15.00;12.00
77411;PMS7003;66484;49.968;19.140;2023-05-10T02:47:21;24.00;18.00;13.00
77411;PMS7003;66484;49.968;19.140;2023-05-10T02:49:48;21.00;18.00;13.50
77411;PMS7003;66484;49.968;19.140;2023-05-10T02:52:16;17.00;17.00;12.75
77411;PMS7003;66484;49.968;19.140;2023-05-10T02:54:48;19.25;18.50;13.75
77411;PMS7003;66484;49.968;19.140;2023-05-10T02:57:17;15.75;15.75;12.50
77411;PMS7003;66484;49.968;19.140;2023-05-10T02:59:51;8.00;4.75;2.25
77411;PMS7003;66484;49.968;19.140;2023-05-10T03:02:19;18.75;17.75;14.00
77411;PMS7003;66484;49.968;19.140;2023-05-10T03:04:47;21.00;16.00;11.50
77411;PMS7003;66484;49.968;19.140;2023-05-10T03:07:14;29.25;24.50;15.50
77411;PMS7003;66484;49.968;19.140;2023-05-10T03:09:42;16.00;15.25;12.00
77411;PMS7003;66484;49.968;19.140;2023-05-10T03:15:22;14.75;13.50;11.50
77411;PMS7003;66484;49.968;19.140;2023-05-10T03:18:19;18.50;17.50;13.00
77411;PMS7003;66484;49.968;19.140;2023-05-10T03:20:57;21.25;18.50;13.00
77411;PMS7003;66484;49.968;19.140;2023-05-10T03:23:27;15.25;15.00;12.00
77411;PMS7003;66484;49.968;19.140;2023-05-10T03:26:01;22.25;16.00;11.75
77411;PMS7003;66484;49.968;19.140;2023-05-10T03:28:28;17.00;17.00;13.50
77411;PMS7003;66484;49.968;19.140;2023-05-10T03:30:56;19.00;18.25;13.00
77411;PMS7003;66484;49.968;19.140;2023-05-10T03:33:24;21.25;19.25;13.50
77411;PMS7003;66484;49.968;19.140;2023-05-10T03:35:52;19.00;18.50;12.75
77411;PMS7003;66484;49.968;19.140;2023-05-10T03:38:19;8.50;8.50;5.00
77411;PMS7003;66484;49.968;19.140;2023-05-10T03:40:46;18.25;18.25;13.75
77411;PMS7003;66484;49.968;19.140;2023-05-10T03:43:14;17.25;17.25;9.00
77411;PMS7003;66484;49.968;19.140;2023-05-10T03:45:41;19.75;19.00;15.00
77411;PMS7003;66484;49.968;19.140;2023-05-10T03:48:09;25.00;20.75;14.25
77411;PMS7003;66484;49.968;19.140;2023-05-10T03:50:36;19.25;17.75;14.00
77411;PMS7003;66484;49.968;19.140;2023-05-10T03:53:03;18.25;17.00;13.00
77411;PMS7003;66484;49.968;19.140;2023-05-10T03:55:31;18.00;18.00;14.50
77411;PMS7003;66484;49.968;19.140;2023-05-10T03:58:01;21.75;18.75;13.25
77411;PMS7003;66484;49.968;19.140;2023-05-10T04:00:28;20.00;16.50;11.25
77411;PMS7003;66484;49.968;19.140;2023-05-10T04:02:55;16.75;16.75;13.00
77411;PMS7003;66484;49.968;19.140;2023-05-10T04:05:23;18.75;16.00;10.75
77411;PMS7003;66484;49.968;19.140;2023-05-10T04:07:50;24.50;19.25;12.75
77411;PMS7003;66484;49.968;19.140;2023-05-10T04:10:17;18.75;17.00;11.00
77411;PMS7003;66484;49.968;19.140;2023-05-10T04:12:45;14.25;14.25;9.75
77411;PMS7003;66484;49.968;19.140;2023-05-10T04:15:12;16.00;15.00;12.50
77411;PMS7003;66484;49.968;19.140;2023-05-10T04:17:40;23.00;17.50;12.00
77411;PMS7003;66484;49.968;19.140;2023-05-10T04:20:07;4.25;3.00;0.75
77411;PMS7003;66484;49.968;19.140;2023-05-10T04:22:35;20.00;20.00;14.25
77411;PMS7003;66484;49.968;19.140;2023-05-10T04:25:02;28.50;23.00;15.00
77411;PMS7003;66484;49.968;19.140;2023-05-10T04:27:30;19.25;16.50;11.00
77411;PMS7003;66484;49.968;19.140;2023-05-10T04:29:57;22.50;18.50;11.00
77411;PMS7003;66484;49.968;19.140;2023-05-10T04:32:25;19.50;17.75;13.75
77411;PMS7003;66484;49.968;19.140;2023-05-10T04:34:53;17.00;15.25;9.00
77411;PMS7003;66484;49.968;19.140;2023-05-10T04:37:21;15.00;15.00;10.50
77411;PMS7003;66484;49.968;19.140;2023-05-10T04:39:49;19.75;16.75;12.00
77411;PMS7003;66484;49.968;19.140;2023-05-10T04:42:17;18.00;18.00;11.25
77411;PMS7003;66484;49.968;19.140;2023-05-10T04:44:44;26.25;23.25;15.75
77411;PMS7003;66484;49.968;19.140;2023-05-10T04:47:11;10.25;9.00;2.50
77411;PMS7003;66484;49.968;19.140;2023-05-10T04:49:39;16.50;14.50;11.00
77411;PMS7003;66484;49.968;19.140;2023-05-10T04:52:07;21.50;19.75;15.00
77411;PMS7003;66484;49.968;19.140;2023-05-10T04:54:34;17.00;16.25;11.75
77411;PMS7003;66484;49.968;19.140;2023-05-10T04:57:01;17.75;15.00;10.75
77411;PMS7003;66484;49.968;19.140;2023-05-10T04:59:28;11.25;10.50;8.00
77411;PMS7003;66484;49.968;19.140;2023-05-10T05:01:56;15.75;14.25;10.25
77411;PMS7003;66484;49.968;19.140;2023-05-10T05:04:24;16.00;12.00;9.50
77411;PMS7003;66484;49.968;19.140;2023-05-10T05:06:52;9.67;8.00;3.67
77411;PMS7003;66484;49.968;19.140;2023-05-10T05:09:19;13.33;11.00;8.00
77411;PMS7003;66484;49.968;19.140;2023-05-10T05:11:47;14.33;11.67;10.00
77411;PMS7003;66484;49.968;19.140;2023-05-10T05:14:15;9.00;7.33;5.00
77411;PMS7003;66484;49.968;19.140;2023-05-10T05:16:42;14.67;11.33;9.67
77411;PMS7003;66484;49.968;19.140;2023-05-10T05:19:10;16.33;12.00;8.67
77411;PMS7003;66484;49.968;19.140;2023-05-10T05:21:38;12.67;12.67;10.00
77411;PMS7003;66484;49.968;19.140;2023-05-10T05:24:05;12.33;11.67;9.00
77411;PMS7003;66484;49.968;19.140;2023-05-10T05:26:33;14.67;12.67;9.00
77411;PMS7003;66484;49.968;19.140;2023-05-10T05:29:00;11.00;9.00;6.00
77411;PMS7003;66484;49.968;19.140;2023-05-10T05:31:28;13.67;12.00;9.00
77411;PMS7003;66484;49.968;19.140;2023-05-10T05:33:55;10.33;10.33;9.33
77411;PMS7003;66484;49.968;19.140;2023-05-10T05:36:23;10.33;10.33;8.33
77411;PMS7003;66484;49.968;19.140;2023-05-10T05:38:50;14.67;12.33;9.33
77411;PMS7003;66484;49.968;19.140;2023-05-10T05:41:18;16.00;11.33;9.33
77411;PMS7003;66484;49.968;19.140;2023-05-10T05:43:45;17.67;17.67;12.00
77411;PMS7003;66484;49.968;19.140;2023-05-10T05:46:13;16.00;11.00;7.00
77411;PMS7003;66484;49.968;19.140;2023-05-10T05:48:40;12.67;11.00;7.00
77411;PMS7003;66484;49.968;19.140;2023-05-10T05:51:07;11.00;11.00;7.67
77411;PMS7003;66484;49.968;19.140;2023-05-10T05:53:35;9.67;9.67;7.67
77411;PMS7003;66484;49.968;19.140;2023-05-10T05:56:02;14.67;13.67;10.00
77411;PMS7003;66484;49.968;19.140;2023-05-10T05:58:30;11.00;11.00;9.00
77411;PMS7003;66484;49.968;19.140;2023-05-10T06:00:57;12.67;12.67;9.33
77411;PMS7003;66484;49.968;19.140;2023-05-10T06:03:24;11.67;10.67;7.67
77411;PMS7003;66484;49.968;19.140;2023-05-10T06:05:52;10.67;10.67;8.00
77411;PMS7003;66484;49.968;19.140;2023-05-10T06:08:19;12.33;12.33;9.33
77411;PMS7003;66484;49.968;19.140;2023-05-10T06:10:47;12.67;11.67;6.00
77411;PMS7003;66484;49.968;19.140;2023-05-10T06:13:14;14.00;12.00;9.00
77411;PMS7003;66484;49.968;19.140;2023-05-10T06:15:42;10.33;10.33;6.00
77411;PMS7003;66484;49.968;19.140;2023-05-10T06:18:10;12.00;11.33;9.67
77411;PMS7003;66484;49.968;19.140;2023-05-10T06:20:38;11.67;10.33;6.33
77411;PMS7003;66484;49.968;19.140;2023-05-10T06:23:05;10.00;9.67;6.67
77411;PMS7003;66484;49.968;19.140;2023-05-10T06:25:33;7.67;7.67;7.00
77411;PMS7003;66484;49.968;19.140;2023-05-10T06:28:00;13.67;10.00;7.00
77411;PMS7003;66484;49.968;19.140;2023-05-10T06:30:28;12.00;10.00;6.00
77411;PMS7003;66484;49.968;19.140;2023-05-10T06:32:56;6.67;6.67;5.00
77411;PMS7003;66484;49.968;19.140;2023-05-10T06:35:23;14.67;12.00;9.00
77411;PMS7003;66484;49.968;19.140;2023-05-10T06:37:51;11.67;8.67;6.67
77411;PMS7003;66484;49.968;19.140;2023-05-10T06:40:19;10.33;7.67;6.33
77411;PMS7003;66484;49.968;19.140;2023-05-10T06:42:46;11.33;10.33;6.33
77411;PMS7003;66484;49.968;19.140;2023-05-10T06:45:15;6.00;4.00;0.67
77411;PMS7003;66484;49.968;19.140;2023-05-10T06:47:43;12.67;11.00;9.00
77411;PMS7003;66484;49.968;19.140;2023-05-10T06:50:10;11.67;10.67;7.00
77411;PMS7003;66484;49.968;19.140;2023-05-10T06:52:38;16.67;15.67;10.00
77411;PMS7003;66484;49.968;19.140;2023-05-10T06:55:06;15.33;12.67;8.67
77411;PMS7003;66484;49.968;19.140;2023-05-10T06:57:33;14.00;12.00;9.33
77411;PMS7003;66484;49.968;19.140;2023-05-10T07:00:01;14.33;11.00;7.33
77411;PMS7003;66484;49.968;19.140;2023-05-10T07:02:30;15.33;12.33;10.33
77411;PMS7003;66484;49.968;19.140;2023-05-10T07:04:58;13.33;11.00;8.00
77411;PMS7003;66484;49.968;19.140;2023-05-10T07:07:28;16.00;11.67;8.00
77411;PMS7003;66484;49.968;19.140;2023-05-10T07:09:57;13.00;11.33;8.00
77411;PMS7003;66484;49.968;19.140;2023-05-10T07:12:24;11.00;11.00;7.00
77411;PMS7003;66484;49.968;19.140;2023-05-10T07:14:52;12.67;10.33;7.33
77411;PMS7003;66484;49.968;19.140;2023-05-10T07:17:19;8.67;8.67;6.00
77411;PMS7003;66484;49.968;19.140;2023-05-10T07:19:47;11.00;11.00;7.00
77411;PMS7003;66484;49.968;19.140;2023-05-10T07:22:14;15.67;14.00;10.00
77411;PMS7003;66484;49.968;19.140;2023-05-10T07:24:43;13.00;9.00;8.00
77411;PMS7003;66484;49.968;19.140;2023-05-10T07:27:10;11.00;9.00;7.00
77411;PMS7003;66484;49.968;19.140;2023-05-10T07:29:38;12.33;11.33;8.33
77411;PMS7003;66484;49.968;19.140;2023-05-10T07:32:05;7.33;7.33;5.00
77411;PMS7003;66484;49.968;19.140;2023-05-10T07:34:33;12.00;12.00;8.00
77411;PMS7003;66484;49.968;19.140;2023-05-10T07:37:00;14.67;12.67;9.00
77411;PMS7003;66484;49.968;19.140;2023-05-10T07:39:28;13.33;13.33;9.00
77411;PMS7003;66484;49.968;19.140;2023-05-10T07:41:55;13.33;12.00;8.00
77411;PMS7003;66484;49.968;19.140;2023-05-10T07:44:24;11.67;10.67;6.00
77411;PMS7003;66484;49.968;19.140;2023-05-10T07:46:51;10.00;9.00;7.67
77411;PMS7003;66484;49.968;19.140;2023-05-10T07:49:19;9.67;8.00;5.67
77411;PMS7003;66484;49.968;19.140;2023-05-10T07:51:46;9.33;9.00;6.00
77411;PMS7003;66484;49.968;19.140;2023-05-10T07:54:14;8.00;7.33;6.00
77411;PMS7003;66484;49.968;19.140;2023-05-10T07:56:41;10.00;9.00;5.00
77411;PMS7003;66484;49.968;19.140;2023-05-10T07:59:16;13.33;11.00;6.33
77411;PMS7003;66484;49.968;19.140;2023-05-10T08:01:44;10.67;8.00;6.33
77411;PMS7003;66484;49.968;19.140;2023-05-10T08:04:12;6.67;6.67;4.67
77411;PMS7003;66484;49.968;19.140;2023-05-10T08:06:39;11.33;11.33;7.00
77411;PMS7003;66484;49.968;19.140;2023-05-10T08:09:08;11.00;11.00;9.00
77411;PMS7003;66484;49.968;19.140;2023-05-10T08:11:35;13.00;13.00;7.33
77411;PMS7003;66484;49.968;19.140;2023-05-10T08:14:03;16.33;11.67;8.67
77411;PMS7003;66484;49.968;19.140;2023-05-10T08:16:30;11.67;10.00;7.00
77411;PMS7003;66484;49.968;19.140;2023-05-10T08:18:57;15.00;11.67;8.33
77411;PMS7003;66484;49.968;19.140;2023-05-10T08:21:25;7.00;7.00;6.00
77411;PMS7003;66484;49.968;19.140;2023-05-10T08:23:52;12.00;10.67;6.33
77411;PMS7003;66484;49.968;19.140;2023-05-10T08:26:20;7.00;7.00;5.00
77411;PMS7003;66484;49.968;19.140;2023-05-10T08:28:48;9.33;7.67;7.00
77411;PMS7003;66484;49.968;19.140;2023-05-10T08:31:16;8.00;7.33;6.00
77411;PMS7003;66484;49.968;19.140;2023-05-10T08:33:43;11.00;9.67;7.00
77411;PMS7003;66484;49.968;19.140;2023-05-10T08:36:11;10.33;9.33;6.67
77411;PMS7003;66484;49.968;19.140;2023-05-10T08:38:41;11.00;10.00;6.00
77411;PMS7003;66484;49.968;19.140;2023-05-10T08:41:08;8.67;6.67;5.67
77411;PMS7003;66484;49.968;19.140;2023-05-10T08:43:37;8.33;8.33;6.00
77411;PMS7003;66484;49.968;19.140;2023-05-10T08:46:05;10.33;8.67;5.33
77411;PMS7003;66484;49.968;19.140;2023-05-10T08:48:34;10.33;9.33;8.00
77411;PMS7003;66484;49.968;19.140;2023-05-10T08:51:02;9.33;9.33;7.67
77411;PMS7003;66484;49.968;19.140;2023-05-10T08:53:30;7.00;6.67;6.00
77411;PMS7003;66484;49.968;19.140;2023-05-10T08:56:02;8.33;8.33;7.00
77411;PMS7003;66484;49.968;19.140;2023-05-10T08:58:30;7.75;7.50;5.50
77411;PMS7003;66484;49.968;19.140;2023-05-10T09:00:57;7.00;7.00;5.00
77411;PMS7003;66484;49.968;19.140;2023-05-10T09:03:26;7.50;6.25;5.25
77411;PMS7003;66484;49.968;19.140;2023-05-10T09:05:54;5.75;5.75;4.50
77411;PMS7003;66484;49.968;19.140;2023-05-10T09:08:23;9.50;9.50;6.50
77411;PMS7003;66484;49.968;19.140;2023-05-10T09:10:56;4.50;4.25;3.75
77411;PMS7003;66484;49.968;19.140;2023-05-10T09:13:24;8.00;7.50;5.00
77411;PMS7003;66484;49.968;19.140;2023-05-10T09:15:51;6.00;5.00;4.25
77411;PMS7003;66484;49.968;19.140;2023-05-10T09:18:19;9.00;7.25;5.25
77411;PMS7003;66484;49.968;19.140;2023-05-10T09:20:48;6.00;6.00;5.00
77411;PMS7003;66484;49.968;19.140;2023-05-10T09:23:16;10.25;7.75;5.00
77411;PMS7003;66484;49.968;19.140;2023-05-10T09:25:43;6.75;6.75;5.25
77411;PMS7003;66484;49.968;19.140;2023-05-10T09:28:11;5.75;5.75;4.00
77411;PMS7003;66484;49.968;19.140;2023-05-10T09:30:38;10.00;10.00;5.50
77411;PMS7003;66484;49.968;19.140;2023-05-10T09:33:06;7.75;5.25;4.00
77411;PMS7003;66484;49.968;19.140;2023-05-10T09:35:34;6.00;6.00;5.75
77411;PMS7003;66484;49.968;19.140;2023-05-10T09:38:03;7.00;6.25;4.50
77411;PMS7003;66484;49.968;19.140;2023-05-10T09:40:31;6.00;6.00;5.00
77411;PMS7003;66484;49.968;19.140;2023-05-10T09:43:03;6.00;4.75;4.25
77411;PMS7003;66484;49.968;19.140;2023-05-10T09:45:34;5.50;4.75;3.50
77411;PMS7003;66484;49.968;19.140;2023-05-10T09:48:05;8.25;8.25;6.50
77411;PMS7003;66484;49.968;19.140;2023-05-10T09:50:32;7.00;4.75;3.50
77411;PMS7003;66484;49.968;19.140;2023-05-10T09:53:02;4.00;4.00;3.00
77411;PMS7003;66484;49.968;19.140;2023-05-10T09:55:43;3.00;3.00;3.00
77411;PMS7003;66484;49.968;19.140;2023-05-10T09:58:13;6.75;5.00;4.00
77411;PMS7003;66484;49.968;19.140;2023-05-10T10:00:45;4.00;3.50;3.00
77411;PMS7003;66484;49.968;19.140;2023-05-10T10:03:19;4.75;4.75;3.00
77411;PMS7003;66484;49.968;19.140;2023-05-10T10:05:47;7.50;6.50;4.75
77411;PMS7003;66484;49.968;19.140;2023-05-10T10:08:16;5.00;5.00;3.25
77411;PMS7003;66484;49.968;19.140;2023-05-10T10:10:43;5.00;5.00;4.00
77411;PMS7003;66484;49.968;19.140;2023-05-10T10:13:13;5.25;5.25;4.00
77411;PMS7003;66484;49.968;19.140;2023-05-10T10:15:40;8.00;5.25;4.75
77411;PMS7003;66484;49.968;19.140;2023-05-10T10:18:12;6.75;4.50;3.00
77411;PMS7003;66484;49.968;19.140;2023-05-10T10:20:41;3.00;3.00;2.00
77411;PMS7003;66484;49.968;19.140;2023-05-10T10:23:08;6.00;6.00;4.50
77411;PMS7003;66484;49.968;19.140;2023-05-10T10:25:36;4.25;4.25;3.25
77411;PMS7003;66484;49.968;19.140;2023-05-10T10:30:55;5.25;5.25;3.00
77411;PMS7003;66484;49.968;19.140;2023-05-10T10:36:26;5.50;5.50;4.00
77411;PMS7003;66484;49.968;19.140;2023-05-10T10:38:57;2.75;2.75;2.50
77411;PMS7003;66484;49.968;19.140;2023-05-10T10:46:58;2.00;2.00;1.75
77411;PMS7003;66484;49.968;19.140;2023-05-10T10:49:27;5.25;4.25;4.00
77411;PMS7003;66484;49.968;19.140;2023-05-10T10:52:20;4.25;3.00;2.50
77411;PMS7003;66484;49.968;19.140;2023-05-10T11:02:46;2.00;2.00;1.00
77411;PMS7003;66484;49.968;19.140;2023-05-10T11:08:00;4.00;4.00;3.00
77411;PMS7003;66484;49.968;19.140;2023-05-10T11:10:28;3.25;3.25;2.00
77411;PMS7003;66484;49.968;19.140;2023-05-10T11:15:28;3.00;3.00;2.25
77411;PMS7003;66484;49.968;19.140;2023-05-10T11:17:56;5.00;3.50;3.00
77411;PMS7003;66484;49.968;19.140;2023-05-10T11:20:26;2.25;2.25;2.25
77411;PMS7003;66484;49.968;19.140;2023-05-10T11:23:10;5.50;4.00;3.00
77411;PMS7003;66484;49.968;19.140;2023-05-10T11:25:42;4.75;4.75;2.75
77411;PMS7003;66484;49.968;19.140;2023-05-10T11:28:14;4.75;4.25;3.50
77411;PMS7003;66484;49.968;19.140;2023-05-10T11:30:41;4.00;4.00;3.00
77411;PMS7003;66484;49.968;19.140;2023-05-10T11:33:14;3.50;3.50;2.00
77411;PMS7003;66484;49.968;19.140;2023-05-10T11:35:43;2.00;2.00;2.00
77411;PMS7003;66484;49.968;19.140;2023-05-10T11:38:10;4.00;4.00;3.00
77411;PMS7003;66484;49.968;19.140;2023-05-10T11:40:39;5.50;5.00;3.75
77411;PMS7003;66484;49.968;19.140;2023-05-10T11:43:08;4.75;4.75;3.00
77411;PMS7003;66484;49.968;19.140;2023-05-10T11:45:36;4.75;3.75;3.00
77411;PMS7003;66484;49.968;19.140;2023-05-10T11:48:04;4.50;4.50;3.25
77411;PMS7003;66484;49.968;19.140;2023-05-10T11:50:32;4.00;4.00;3.25
77411;PMS7003;66484;49.968;19.140;2023-05-10T11:52:59;4.00;4.00;3.25
77411;PMS7003;66484;49.968;19.140;2023-05-10T11:55:26;2.75;2.75;2.25
77411;PMS7003;66484;49.968;19.140;2023-05-10T11:57:54;2.25;2.25;2.00
77411;PMS7003;66484;49.968;19.140;2023-05-10T12:00:21;5.25;5.25;3.50
77411;PMS7003;66484;49.968;19.140;2023-05-10T12:02:48;5.00;4.25;3.00
77411;PMS7003;66484;49.968;19.140;2023-05-10T12:05:17;5.75;4.75;3.50
77411;PMS7003;66484;49.968;19.140;2023-05-10T12:07:44;4.75;3.00;1.25
77411;PMS7003;66484;49.968;19.140;2023-05-10T12:10:12;3.00;3.00;2.25
77411;PMS7003;66484;49.968;19.140;2023-05-10T12:12:42;4.00;2.00;2.00
77411;PMS7003;66484;49.968;19.140;2023-05-10T12:15:18;5.00;3.25;2.50
77411;PMS7003;66484;49.968;19.140;2023-05-10T12:17:47;4.25;4.25;3.00
77411;PMS7003;66484;49.968;19.140;2023-05-10T12:22:51;2.25;2.25;2.25
77411;PMS7003;66484;49.968;19.140;2023-05-10T12:25:21;7.25;3.25;2.00
77411;PMS7003;66484;49.968;19.140;2023-05-10T12:27:54;3.75;1.25;1.25
77411;PMS7003;66484;49.968;19.140;2023-05-10T12:30:23;6.00;4.75;3.00
77411;PMS7003;66484;49.968;19.140;2023-05-10T12:32:52;4.00;4.00;2.50
77411;PMS7003;66484;49.968;19.140;2023-05-10T12:35:20;3.00;3.00;2.75
77411;PMS7003;66484;49.968;19.140;2023-05-10T12:37:48;4.25;3.25;2.50
77411;PMS7003;66484;49.968;19.140;2023-05-10T12:40:16;5.00;5.00;3.50
77411;PMS7003;66484;49.968;19.140;2023-05-10T12:42:44;4.00;4.00;3.00
77411;PMS7003;66484;49.968;19.140;2023-05-10T12:45:12;2.50;2.50;2.25
77411;PMS7003;66484;49.968;19.140;2023-05-10T12:47:39;5.00;3.00;2.25
77411;PMS7003;66484;49.968;19.140;2023-05-10T12:50:10;5.75;5.75;3.50
77411;PMS7003;66484;49.968;19.140;2023-05-10T12:52:38;6.50;6.50;4.00
77411;PMS7003;66484;49.968;19.140;2023-05-10T12:55:06;2.00;2.00;2.00
77411;PMS7003;66484;49.968;19.140;2023-05-10T12:57:33;2.50;2.50;1.75
77411;PMS7003;66484;49.968;19.140;2023-05-10T13:00:00;4.00;4.00;2.25
77411;PMS7003;66484;49.968;19.140;2023-05-10T13:02:28;5.00;4.00;2.50
77411;PMS7003;66484;49.968;19.140;2023-05-10T13:04:56;4.25;4.25;3.25
77411;PMS7003;66484;49.968;19.140;2023-05-10T13:07:23;3.00;1.75;1.25
77411;PMS7003;66484;49.968;19.140;2023-05-10T13:09:51;3.50;2.50;2.50
77411;PMS7003;66484;49.968;19.140;2023-05-10T13:12:18;2.00;1.00;1.00
77411;PMS7003;66484;49.968;19.140;2023-05-10T13:14:48;2.50;2.50;1.25
77411;PMS7003;66484;49.968;19.140;2023-05-10T13:17:16;4.50;4.50;3.00
77411;PMS7003;66484;49.968;19.140;2023-05-10T13:19:44;5.25;5.00;3.50
77411;PMS7003;66484;49.968;19.140;2023-05-10T13:22:11;2.75;2.75;2.75
77411;PMS7003;66484;49.968;19.140;2023-05-10T13:24:38;4.75;4.75;4.00
77411;PMS7003;66484;49.968;19.140;2023-05-10T13:27:06;5.00;5.00;4.00
77411;PMS7003;66484;49.968;19.140;2023-05-10T13:29:34;7.00;5.50;4.50
77411;PMS7003;66484;49.968;19.140;2023-05-10T13:32:01;4.50;4.50;4.00
77411;PMS7003;66484;49.968;19.140;2023-05-10T13:34:29;2.50;2.50;1.00
77411;PMS7003;66484;49.968;19.140;2023-05-10T13:36:57;0.00;0.00;0.00
77411;PMS7003;66484;49.968;19.140;2023-05-10T13:39:24;1.25;1.25;1.00
77411;PMS7003;66484;49.968;19.140;2023-05-10T13:41:52;3.50;3.50;3.00
77411;PMS7003;66484;49.968;19.140;2023-05-10T13:44:21;5.50;4.50;3.50
77411;PMS7003;66484;49.968;19.140;2023-05-10T13:46:49;3.75;3.75;3.00
77411;PMS7003;66484;49.968;19.140;2023-05-10T13:49:17;5.50;5.50;4.00
77411;PMS7003;66484;49.968;19.140;2023-05-10T13:51:44;3.00;3.00;2.25
77411;PMS7003;66484;49.968;19.140;2023-05-10T13:54:12;5.75;4.25;3.00
77411;PMS7003;66484;49.968;19.140;2023-05-10T13:56:41;6.50;5.25;3.75
77411;PMS7003;66484;49.968;19.140;2023-05-10T13:59:09;4.00;4.00;3.00
77411;PMS7003;66484;49.968;19.140;2023-05-10T14:01:37;4.00;4.00;3.25
77411;PMS7003;66484;49.968;19.140;2023-05-10T14:04:05;2.25;2.25;1.75
77411;PMS7003;66484;49.968;19.140;2023-05-10T14:06:33;3.00;3.00;2.75
77411;PMS7003;66484;49.968;19.140;2023-05-10T14:09:00;5.50;3.75;3.25
77411;PMS7003;66484;49.968;19.140;2023-05-10T14:11:27;4.00;4.00;3.25
77411;PMS7003;66484;49.968;19.140;2023-05-10T14:13:55;4.50;4.50;3.00
77411;PMS7003;66484;49.968;19.140;2023-05-10T14:16:23;2.50;2.50;2.00
77411;PMS7003;66484;49.968;19.140;2023-05-10T14:18:51;6.00;4.75;3.00
77411;PMS7003;66484;49.968;19.140;2023-05-10T14:21:18;5.25;3.50;3.00
77411;PMS7003;66484;49.968;19.140;2023-05-10T14:23:46;4.25;4.00;3.75
77411;PMS7003;66484;49.968;19.140;2023-05-10T14:26:13;3.00;3.00;2.00
77411;PMS7003;66484;49.968;19.140;2023-05-10T14:28:41;1.75;1.75;1.00
77411;PMS7003;66484;49.968;19.140;2023-05-10T14:31:08;3.00;3.00;3.00
77411;PMS7003;66484;49.968;19.140;2023-05-10T14:33:35;3.50;3.50;2.75
77411;PMS7003;66484;49.968;19.140;2023-05-10T14:36:03;6.25;5.25;4.25
77411;PMS7003;66484;49.968;19.140;2023-05-10T14:38:31;1.75;1.75;1.50
77411;PMS7003;66484;49.968;19.140;2023-05-10T14:40:58;5.00;5.00;4.00
77411;PMS7003;66484;49.968;19.140;2023-05-10T14:43:26;4.25;4.25;3.75
77411;PMS7003;66484;49.968;19.140;2023-05-10T14:45:54;3.25;3.25;3.00